sensor_id;sensor_type;location;lat;lon;timestamp;P1;durP1;ratioP1;P2;durP2;ratioP2
52956;SDS011;38819;42.692;23.342;2022-09-21T00:01:15;4.30;;;3.90;;
52956;SDS011;38819;42.692;23.342;2022-09-21T00:03:45;4.80;;;3.58;;
52956;SDS011;38819;42.692;23.342;2022-09-21T00:06:15;5.40;;;3.67;;
52956;SDS011;38819;42.692;23.342;2022-09-21T00:08:43;4.85;;;3.65;;
52956;SDS011;38819;42.692;23.342;2022-09-21T00:11:13;3.95;;;3.53;;
52956;SDS011;38819;42.692;23.342;2022-09-21T00:13:43;5.15;;;3.33;;
52956;SDS011;38819;42.692;23.342;2022-09-21T00:16:11;3.63;;;3.20;;
52956;SDS011;38819;42.692;23.342;2022-09-21T00:18:37;3.80;;;3.08;;
52956;SDS011;38819;42.692;23.342;2022-09-21T00:21:09;4.90;;;3.05;;
52956;SDS011;38819;42.692;23.342;2022-09-21T00:23:37;3.80;;;2.88;;
52956;SDS011;38819;42.692;23.342;2022-09-21T00:26:07;4.90;;;3.03;;
52956;SDS011;38819;42.692;23.342;2022-09-21T00:28:36;3.53;;;3.10;;
52956;SDS011;38819;42.692;23.342;2022-09-21T00:31:03;3.35;;;2.67;;
52956;SDS011;38819;42.692;23.342;2022-09-21T00:33:30;3.35;;;3.05;;
52956;SDS011;38819;42.692;23.342;2022-09-21T00:36:00;3.92;;;3.10;;
52956;SDS011;38819;42.692;23.342;2022-09-21T00:38:28;6.47;;;3.33;;
52956;SDS011;38819;42.692;23.342;2022-09-21T00:40:54;3.47;;;3.10;;
52956;SDS011;38819;42.692;23.342;2022-09-21T00:43:19;4.40;;;2.90;;
52956;SDS011;38819;42.692;23.342;2022-09-21T00:45:45;3.67;;;3.33;;
52956;SDS011;38819;42.692;23.342;2022-09-21T00:48:14;5.63;;;3.35;;
52956;SDS011;38819;42.692;23.342;2022-09-21T00:50:41;4.55;;;2.90;;
52956;SDS011;38819;42.692;23.342;2022-09-21T00:53:13;3.50;;;3.20;;
52956;SDS011;38819;42.692;23.342;2022-09-21T00:55:41;4.23;;;3.57;;
52956;SDS011;38819;42.692;23.342;2022-09-21T00:58:13;3.10;;;2.85;;
52956;SDS011;38819;42.692;23.342;2022-09-21T01:00:43;5.60;;;3.55;;
52956;SDS011;38819;42.692;23.342;2022-09-21T01:03:08;6.30;;;3.35;;
52956;SDS011;38819;42.692;23.342;2022-09-21T01:05:36;3.95;;;3.45;;
52956;SDS011;38819;42.692;23.342;2022-09-21T01:08:02;2.97;;;2.78;;
52956;SDS011;38819;42.692;23.342;2022-09-21T01:10:31;3.35;;;3.10;;
52956;SDS011;38819;42.692;23.342;2022-09-21T01:16:15;3.60;;;3.05;;
52956;SDS011;38819;42.692;23.342;2022-09-21T01:21:20;3.53;;;3.20;;
52956;SDS011;38819;42.692;23.342;2022-09-21T01:29:24;7.50;;;3.10;;
52956;SDS011;38819;42.692;23.342;2022-09-21T01:32:03;5.28;;;3.10;;
52956;SDS011;38819;42.692;23.342;2022-09-21T01:34:50;3.38;;;3.15;;
52956;SDS011;38819;42.692;23.342;2022-09-21T01:37:24;3.95;;;3.58;;
52956;SDS011;38819;42.692;23.342;2022-09-21T01:40:17;7.03;;;3.67;;
52956;SDS011;38819;42.692;23.342;2022-09-21T01:42:47;5.72;;;3.95;;
52956;SDS011;38819;42.692;23.342;2022-09-21T01:47:42;6.20;;;4.00;;
52956;SDS011;38819;42.692;23.342;2022-09-21T01:50:11;4.75;;;3.92;;
52956;SDS011;38819;42.692;23.342;2022-09-21T01:55:44;5.68;;;3.90;;
52956;SDS011;38819;42.692;23.342;2022-09-21T02:00:53;7.22;;;4.32;;
52956;SDS011;38819;42.692;23.342;2022-09-21T02:03:24;4.30;;;3.90;;
52956;SDS011;38819;42.692;23.342;2022-09-21T02:05:54;4.20;;;3.83;;
52956;SDS011;38819;42.692;23.342;2022-09-21T02:08:21;6.35;;;3.92;;
52956;SDS011;38819;42.692;23.342;2022-09-21T02:10:50;6.25;;;3.35;;
52956;SDS011;38819;42.692;23.342;2022-09-21T02:13:17;5.05;;;3.53;;
52956;SDS011;38819;42.692;23.342;2022-09-21T02:15:49;5.10;;;3.58;;
52956;SDS011;38819;42.692;23.342;2022-09-21T02:21:29;4.10;;;3.60;;
52956;SDS011;38819;42.692;23.342;2022-09-21T02:26:42;3.20;;;2.95;;
52956;SDS011;38819;42.692;23.342;2022-09-21T02:32:36;6.60;;;3.47;;
52956;SDS011;38819;42.692;23.342;2022-09-21T02:37:48;4.53;;;2.85;;
52956;SDS011;38819;42.692;23.342;2022-09-21T02:40:30;4.90;;;3.20;;
52956;SDS011;38819;42.692;23.342;2022-09-21T02:45:30;3.83;;;3.53;;
52956;SDS011;38819;42.692;23.342;2022-09-21T02:48:04;5.03;;;3.72;;
52956;SDS011;38819;42.692;23.342;2022-09-21T02:50:35;5.13;;;3.50;;
52956;SDS011;38819;42.692;23.342;2022-09-21T02:53:06;5.65;;;3.60;;
52956;SDS011;38819;42.692;23.342;2022-09-21T02:55:35;5.65;;;3.22;;
52956;SDS011;38819;42.692;23.342;2022-09-21T02:58:03;4.15;;;3.75;;
52956;SDS011;38819;42.692;23.342;2022-09-21T03:00:32;3.83;;;3.35;;
52956;SDS011;38819;42.692;23.342;2022-09-21T03:03:00;7.60;;;3.47;;
52956;SDS011;38819;42.692;23.342;2022-09-21T03:05:41;10.45;;;3.65;;
52956;SDS011;38819;42.692;23.342;2022-09-21T03:08:07;4.30;;;3.90;;
52956;SDS011;38819;42.692;23.342;2022-09-21T03:10:33;5.45;;;4.10;;
52956;SDS011;38819;42.692;23.342;2022-09-21T03:12:59;4.57;;;3.88;;
52956;SDS011;38819;42.692;23.342;2022-09-21T03:15:25;4.05;;;3.65;;
52956;SDS011;38819;42.692;23.342;2022-09-21T03:17:51;7.60;;;4.20;;
52956;SDS011;38819;42.692;23.342;2022-09-21T03:20:17;6.43;;;4.00;;
52956;SDS011;38819;42.692;23.342;2022-09-21T03:22:42;5.63;;;3.95;;
52956;SDS011;38819;42.692;23.342;2022-09-21T03:25:08;7.38;;;4.00;;
52956;SDS011;38819;42.692;23.342;2022-09-21T03:27:37;6.22;;;3.80;;
52956;SDS011;38819;42.692;23.342;2022-09-21T03:30:02;6.03;;;4.28;;
52956;SDS011;38819;42.692;23.342;2022-09-21T03:32:28;6.68;;;4.30;;
52956;SDS011;38819;42.692;23.342;2022-09-21T03:34:53;5.85;;;4.45;;
52956;SDS011;38819;42.692;23.342;2022-09-21T03:37:19;6.97;;;4.15;;
52956;SDS011;38819;42.692;23.342;2022-09-21T03:39:44;10.25;;;3.80;;
52956;SDS011;38819;42.692;23.342;2022-09-21T03:42:11;4.93;;;3.77;;
52956;SDS011;38819;42.692;23.342;2022-09-21T03:44:38;10.23;;;5.10;;
52956;SDS011;38819;42.692;23.342;2022-09-21T03:47:05;5.80;;;3.90;;
52956;SDS011;38819;42.692;23.342;2022-09-21T03:49:31;3.75;;;3.45;;
52956;SDS011;38819;42.692;23.342;2022-09-21T03:51:58;8.27;;;3.38;;
52956;SDS011;38819;42.692;23.342;2022-09-21T03:54:24;6.93;;;3.42;;
52956;SDS011;38819;42.692;23.342;2022-09-21T03:56:50;10.38;;;3.58;;
52956;SDS011;38819;42.692;23.342;2022-09-21T03:59:15;7.57;;;3.05;;
52956;SDS011;38819;42.692;23.342;2022-09-21T04:01:41;7.72;;;3.75;;
52956;SDS011;38819;42.692;23.342;2022-09-21T04:04:07;11.80;;;5.75;;
52956;SDS011;38819;42.692;23.342;2022-09-21T04:06:34;15.00;;;8.07;;
52956;SDS011;38819;42.692;23.342;2022-09-21T04:08:59;14.38;;;6.93;;
52956;SDS011;38819;42.692;23.342;2022-09-21T04:11:27;9.45;;;5.85;;
52956;SDS011;38819;42.692;23.342;2022-09-21T04:13:52;7.80;;;6.35;;
52956;SDS011;38819;42.692;23.342;2022-09-21T04:16:21;9.15;;;5.80;;
52956;SDS011;38819;42.692;23.342;2022-09-21T04:18:47;16.10;;;5.80;;
52956;SDS011;38819;42.692;23.342;2022-09-21T04:21:15;6.03;;;4.97;;
52956;SDS011;38819;42.692;23.342;2022-09-21T04:23:41;9.80;;;5.22;;
52956;SDS011;38819;42.692;23.342;2022-09-21T04:26:17;9.38;;;5.93;;
52956;SDS011;38819;42.692;23.342;2022-09-21T04:28:53;9.63;;;5.20;;
52956;SDS011;38819;42.692;23.342;2022-09-21T04:31:19;8.50;;;6.03;;
52956;SDS011;38819;42.692;23.342;2022-09-21T04:33:49;10.30;;;5.40;;
52956;SDS011;38819;42.692;23.342;2022-09-21T04:36:16;15.73;;;6.47;;
52956;SDS011;38819;42.692;23.342;2022-09-21T04:38:42;11.02;;;5.95;;
52956;SDS011;38819;42.692;23.342;2022-09-21T04:41:08;16.00;;;8.73;;
52956;SDS011;38819;42.692;23.342;2022-09-21T04:43:34;13.63;;;7.35;;
52956;SDS011;38819;42.692;23.342;2022-09-21T04:46:06;9.88;;;5.10;;
52956;SDS011;38819;42.692;23.342;2022-09-21T04:48:33;14.48;;;5.28;;
52956;SDS011;38819;42.692;23.342;2022-09-21T04:50:59;10.68;;;5.10;;
52956;SDS011;38819;42.692;23.342;2022-09-21T04:53:26;8.68;;;4.72;;
52956;SDS011;38819;42.692;23.342;2022-09-21T04:55:51;9.80;;;4.50;;
52956;SDS011;38819;42.692;23.342;2022-09-21T04:58:17;13.77;;;5.20;;
52956;SDS011;38819;42.692;23.342;2022-09-21T05:00:42;13.05;;;5.82;;
52956;SDS011;38819;42.692;23.342;2022-09-21T05:03:08;17.02;;;5.50;;
52956;SDS011;38819;42.692;23.342;2022-09-21T05:05:33;9.52;;;4.75;;
52956;SDS011;38819;42.692;23.342;2022-09-21T05:07:59;9.43;;;5.03;;
52956;SDS011;38819;42.692;23.342;2022-09-21T05:10:24;9.00;;;5.32;;
52956;SDS011;38819;42.692;23.342;2022-09-21T05:12:50;9.43;;;4.75;;
52956;SDS011;38819;42.692;23.342;2022-09-21T05:15:16;11.57;;;4.97;;
52956;SDS011;38819;42.692;23.342;2022-09-21T05:17:42;12.23;;;4.35;;
52956;SDS011;38819;42.692;23.342;2022-09-21T05:20:08;9.15;;;5.00;;
52956;SDS011;38819;42.692;23.342;2022-09-21T05:22:34;9.90;;;4.65;;
52956;SDS011;38819;42.692;23.342;2022-09-21T05:25:00;11.02;;;5.28;;
52956;SDS011;38819;42.692;23.342;2022-09-21T05:27:25;17.10;;;6.00;;
52956;SDS011;38819;42.692;23.342;2022-09-21T05:29:50;15.93;;;6.65;;
52956;SDS011;38819;42.692;23.342;2022-09-21T05:40:28;20.30;;;6.10;;
52956;SDS011;38819;42.692;23.342;2022-09-21T05:42:54;12.38;;;6.85;;
52956;SDS011;38819;42.692;23.342;2022-09-21T05:45:20;15.30;;;7.97;;
52956;SDS011;38819;42.692;23.342;2022-09-21T05:47:49;14.97;;;8.10;;
52956;SDS011;38819;42.692;23.342;2022-09-21T05:53:26;14.55;;;8.10;;
52956;SDS011;38819;42.692;23.342;2022-09-21T05:56:10;11.15;;;6.95;;
52956;SDS011;38819;42.692;23.342;2022-09-21T06:04:27;17.63;;;5.53;;
52956;SDS011;38819;42.692;23.342;2022-09-21T06:06:53;16.67;;;5.82;;
52956;SDS011;38819;42.692;23.342;2022-09-21T06:09:18;15.55;;;5.85;;
52956;SDS011;38819;42.692;23.342;2022-09-21T06:11:44;21.13;;;4.80;;
52956;SDS011;38819;42.692;23.342;2022-09-21T06:14:10;10.23;;;5.47;;
52956;SDS011;38819;42.692;23.342;2022-09-21T06:16:36;13.93;;;5.38;;
52956;SDS011;38819;42.692;23.342;2022-09-21T06:19:03;11.70;;;5.13;;
52956;SDS011;38819;42.692;23.342;2022-09-21T06:21:28;17.23;;;4.65;;
52956;SDS011;38819;42.692;23.342;2022-09-21T06:23:54;9.93;;;4.65;;
52956;SDS011;38819;42.692;23.342;2022-09-21T06:26:19;13.00;;;4.18;;
52956;SDS011;38819;42.692;23.342;2022-09-21T06:28:44;11.88;;;4.47;;
52956;SDS011;38819;42.692;23.342;2022-09-21T06:31:11;11.75;;;4.57;;
52956;SDS011;38819;42.692;23.342;2022-09-21T06:33:36;10.13;;;4.03;;
52956;SDS011;38819;42.692;23.342;2022-09-21T06:36:02;12.82;;;4.18;;
52956;SDS011;38819;42.692;23.342;2022-09-21T06:38:28;11.65;;;4.40;;
52956;SDS011;38819;42.692;23.342;2022-09-21T06:40:53;7.47;;;3.25;;
52956;SDS011;38819;42.692;23.342;2022-09-21T06:43:19;7.82;;;2.83;;
52956;SDS011;38819;42.692;23.342;2022-09-21T06:45:55;12.50;;;3.33;;
52956;SDS011;38819;42.692;23.342;2022-09-21T06:48:21;6.35;;;2.63;;
52956;SDS011;38819;42.692;23.342;2022-09-21T06:50:47;6.00;;;3.22;;
52956;SDS011;38819;42.692;23.342;2022-09-21T06:53:13;6.63;;;2.60;;
52956;SDS011;38819;42.692;23.342;2022-09-21T06:55:39;2.13;;;1.95;;
52956;SDS011;38819;42.692;23.342;2022-09-21T06:58:05;3.05;;;2.47;;
52956;SDS011;38819;42.692;23.342;2022-09-21T07:00:30;6.30;;;2.58;;
52956;SDS011;38819;42.692;23.342;2022-09-21T07:02:57;2.50;;;2.30;;
52956;SDS011;38819;42.692;23.342;2022-09-21T07:05:22;2.65;;;2.45;;
52956;SDS011;38819;42.692;23.342;2022-09-21T07:07:48;9.90;;;3.20;;
52956;SDS011;38819;42.692;23.342;2022-09-21T07:10:13;5.72;;;2.78;;
52956;SDS011;38819;42.692;23.342;2022-09-21T07:12:39;4.68;;;2.60;;
52956;SDS011;38819;42.692;23.342;2022-09-21T07:15:05;7.00;;;2.50;;
52956;SDS011;38819;42.692;23.342;2022-09-21T07:17:32;4.47;;;2.67;;
52956;SDS011;38819;42.692;23.342;2022-09-21T07:19:59;5.88;;;3.63;;
52956;SDS011;38819;42.692;23.342;2022-09-21T07:22:27;4.55;;;2.40;;
52956;SDS011;38819;42.692;23.342;2022-09-21T07:24:53;5.18;;;2.78;;
52956;SDS011;38819;42.692;23.342;2022-09-21T07:27:19;9.80;;;2.75;;
52956;SDS011;38819;42.692;23.342;2022-09-21T07:29:44;4.03;;;3.33;;
52956;SDS011;38819;42.692;23.342;2022-09-21T07:32:11;6.70;;;2.65;;
52956;SDS011;38819;42.692;23.342;2022-09-21T07:34:37;4.32;;;2.80;;
52956;SDS011;38819;42.692;23.342;2022-09-21T07:37:03;5.65;;;2.83;;
52956;SDS011;38819;42.692;23.342;2022-09-21T07:39:28;5.90;;;2.35;;
52956;SDS011;38819;42.692;23.342;2022-09-21T07:41:54;3.58;;;2.50;;
52956;SDS011;38819;42.692;23.342;2022-09-21T07:44:21;6.20;;;2.42;;
52956;SDS011;38819;42.692;23.342;2022-09-21T07:46:50;4.75;;;2.60;;
52956;SDS011;38819;42.692;23.342;2022-09-21T07:49:15;2.38;;;2.17;;
52956;SDS011;38819;42.692;23.342;2022-09-21T07:51:41;2.78;;;2.10;;
52956;SDS011;38819;42.692;23.342;2022-09-21T07:54:08;4.05;;;2.22;;
52956;SDS011;38819;42.692;23.342;2022-09-21T07:56:38;4.55;;;2.53;;
52956;SDS011;38819;42.692;23.342;2022-09-21T07:59:04;3.88;;;2.40;;
52956;SDS011;38819;42.692;23.342;2022-09-21T08:01:40;6.35;;;2.22;;
52956;SDS011;38819;42.692;23.342;2022-09-21T08:04:07;6.10;;;1.95;;
52956;SDS011;38819;42.692;23.342;2022-09-21T08:06:34;2.83;;;2.25;;
52956;SDS011;38819;42.692;23.342;2022-09-21T08:09:02;4.35;;;3.03;;
52956;SDS011;38819;42.692;23.342;2022-09-21T08:11:28;3.42;;;2.28;;
52956;SDS011;38819;42.692;23.342;2022-09-21T08:13:58;2.57;;;2.33;;
52956;SDS011;38819;42.692;23.342;2022-09-21T08:16:28;2.38;;;2.10;;
52956;SDS011;38819;42.692;23.342;2022-09-21T08:21:20;3.33;;;2.22;;
52956;SDS011;38819;42.692;23.342;2022-09-21T08:23:46;3.97;;;2.10;;
52956;SDS011;38819;42.692;23.342;2022-09-21T08:26:13;2.47;;;1.98;;
52956;SDS011;38819;42.692;23.342;2022-09-21T08:28:42;4.38;;;2.08;;
52956;SDS011;38819;42.692;23.342;2022-09-21T08:31:12;2.55;;;1.90;;
52956;SDS011;38819;42.692;23.342;2022-09-21T08:33:38;5.15;;;2.13;;
52956;SDS011;38819;42.692;23.342;2022-09-21T08:36:04;4.90;;;1.50;;
52956;SDS011;38819;42.692;23.342;2022-09-21T08:38:33;4.63;;;1.50;;
52956;SDS011;38819;42.692;23.342;2022-09-21T08:41:00;2.78;;;1.58;;
52956;SDS011;38819;42.692;23.342;2022-09-21T08:45:53;4.60;;;1.67;;
52956;SDS011;38819;42.692;23.342;2022-09-21T08:48:22;2.60;;;1.80;;
52956;SDS011;38819;42.692;23.342;2022-09-21T08:50:51;1.63;;;1.52;;
52956;SDS011;38819;42.692;23.342;2022-09-21T08:53:41;1.38;;;1.27;;
52956;SDS011;38819;42.692;23.342;2022-09-21T08:56:10;2.15;;;1.60;;
52956;SDS011;38819;42.692;23.342;2022-09-21T08:58:37;3.30;;;1.80;;
52956;SDS011;38819;42.692;23.342;2022-09-21T09:19:59;3.40;;;1.40;;
52956;SDS011;38819;42.692;23.342;2022-09-21T09:22:33;1.08;;;1.02;;
52956;SDS011;38819;42.692;23.342;2022-09-21T09:25:06;1.85;;;1.00;;
52956;SDS011;38819;42.692;23.342;2022-09-21T09:27:42;1.50;;;1.20;;
52956;SDS011;38819;42.692;23.342;2022-09-21T09:32:57;3.72;;;1.02;;
52956;SDS011;38819;42.692;23.342;2022-09-21T09:35:36;2.70;;;1.52;;
52956;SDS011;38819;42.692;23.342;2022-09-21T09:43:52;5.15;;;1.75;;
52956;SDS011;38819;42.692;23.342;2022-09-21T09:46:52;4.03;;;1.58;;
52956;SDS011;38819;42.692;23.342;2022-09-21T09:49:27;2.50;;;2.30;;
52956;SDS011;38819;42.692;23.342;2022-09-21T09:51:55;2.13;;;1.45;;
52956;SDS011;38819;42.692;23.342;2022-09-21T09:54:20;1.90;;;1.40;;
52956;SDS011;38819;42.692;23.342;2022-09-21T09:56:50;1.98;;;1.20;;
52956;SDS011;38819;42.692;23.342;2022-09-21T10:04:58;1.80;;;1.25;;
52956;SDS011;38819;42.692;23.342;2022-09-21T10:07:34;2.72;;;1.10;;
52956;SDS011;38819;42.692;23.342;2022-09-21T10:10:00;2.33;;;1.38;;
52956;SDS011;38819;42.692;23.342;2022-09-21T10:12:25;4.90;;;1.35;;
52956;SDS011;38819;42.692;23.342;2022-09-21T10:14:53;2.05;;;1.60;;
52956;SDS011;38819;42.692;23.342;2022-09-21T10:17:22;1.58;;;1.23;;
52956;SDS011;38819;42.692;23.342;2022-09-21T10:19:57;2.75;;;1.38;;
52956;SDS011;38819;42.692;23.342;2022-09-21T10:22:25;1.60;;;1.50;;
52956;SDS011;38819;42.692;23.342;2022-09-21T10:24:52;1.45;;;1.15;;
52956;SDS011;38819;42.692;23.342;2022-09-21T10:27:36;1.25;;;1.15;;
52956;SDS011;38819;42.692;23.342;2022-09-21T10:30:17;4.82;;;1.25;;
52956;SDS011;38819;42.692;23.342;2022-09-21T10:32:53;0.98;;;0.98;;
52956;SDS011;38819;42.692;23.342;2022-09-21T10:37:46;2.72;;;1.10;;
52956;SDS011;38819;42.692;23.342;2022-09-21T10:42:43;7.43;;;1.20;;
52956;SDS011;38819;42.692;23.342;2022-09-21T10:45:19;1.65;;;0.70;;
52956;SDS011;38819;42.692;23.342;2022-09-21T10:47:50;1.33;;;1.23;;
52956;SDS011;38819;42.692;23.342;2022-09-21T10:50:35;2.05;;;1.27;;
52956;SDS011;38819;42.692;23.342;2022-09-21T10:55:32;0.77;;;0.60;;
52956;SDS011;38819;42.692;23.342;2022-09-21T10:58:02;0.40;;;0.40;;
52956;SDS011;38819;42.692;23.342;2022-09-21T11:00:40;2.75;;;1.13;;
52956;SDS011;38819;42.692;23.342;2022-09-21T11:08:31;0.98;;;0.80;;
52956;SDS011;38819;42.692;23.342;2022-09-21T11:16:37;1.60;;;1.50;;
52956;SDS011;38819;42.692;23.342;2022-09-21T11:25:17;0.88;;;0.82;;
52956;SDS011;38819;42.692;23.342;2022-09-21T11:27:56;0.70;;;0.70;;
52956;SDS011;38819;42.692;23.342;2022-09-21T11:33:45;4.53;;;1.48;;
52956;SDS011;38819;42.692;23.342;2022-09-21T11:39:10;2.15;;;1.00;;
52956;SDS011;38819;42.692;23.342;2022-09-21T11:41:52;2.20;;;0.85;;
52956;SDS011;38819;42.692;23.342;2022-09-21T11:47:18;3.10;;;0.70;;
52956;SDS011;38819;42.692;23.342;2022-09-21T11:52:27;4.35;;;0.68;;
52956;SDS011;38819;42.692;23.342;2022-09-21T11:58:59;1.30;;;1.20;;
52956;SDS011;38819;42.692;23.342;2022-09-21T12:09:50;1.50;;;0.98;;
52956;SDS011;38819;42.692;23.342;2022-09-21T12:12:35;4.53;;;1.00;;
52956;SDS011;38819;42.692;23.342;2022-09-21T12:15:20;2.08;;;1.05;;
52956;SDS011;38819;42.692;23.342;2022-09-21T12:18:01;2.20;;;0.70;;
52956;SDS011;38819;42.692;23.342;2022-09-21T12:25:42;1.02;;;0.90;;
52956;SDS011;38819;42.692;23.342;2022-09-21T12:31:03;3.00;;;1.13;;
52956;SDS011;38819;42.692;23.342;2022-09-21T12:33:43;1.45;;;1.35;;
52956;SDS011;38819;42.692;23.342;2022-09-21T12:36:24;2.65;;;1.10;;
52956;SDS011;38819;42.692;23.342;2022-09-21T12:39:04;1.73;;;1.00;;
52956;SDS011;38819;42.692;23.342;2022-09-21T12:49:37;2.10;;;0.90;;
52956;SDS011;38819;42.692;23.342;2022-09-21T12:52:07;1.08;;;0.82;;
52956;SDS011;38819;42.692;23.342;2022-09-21T13:00:13;4.95;;;1.00;;
52956;SDS011;38819;42.692;23.342;2022-09-21T13:08:44;1.02;;;0.93;;
52956;SDS011;38819;42.692;23.342;2022-09-21T13:11:11;0.93;;;0.70;;
52956;SDS011;38819;42.692;23.342;2022-09-21T13:13:46;1.55;;;0.98;;
52956;SDS011;38819;42.692;23.342;2022-09-21T13:16:25;1.48;;;0.77;;
52956;SDS011;38819;42.692;23.342;2022-09-21T13:18:58;3.88;;;0.75;;
52956;SDS011;38819;42.692;23.342;2022-09-21T13:21:44;0.68;;;0.68;;
52956;SDS011;38819;42.692;23.342;2022-09-21T13:24:26;0.40;;;0.40;;
52956;SDS011;38819;42.692;23.342;2022-09-21T13:26:55;0.50;;;0.50;;
52956;SDS011;38819;42.692;23.342;2022-09-21T13:29:33;0.70;;;0.70;;
52956;SDS011;38819;42.692;23.342;2022-09-21T13:34:36;0.47;;;0.47;;
52956;SDS011;38819;42.692;23.342;2022-09-21T13:44:59;1.10;;;0.70;;
52956;SDS011;38819;42.692;23.342;2022-09-21T13:47:48;1.10;;;0.90;;
52956;SDS011;38819;42.692;23.342;2022-09-21T13:50:27;3.70;;;0.80;;
52956;SDS011;38819;42.692;23.342;2022-09-21T13:52:57;1.77;;;1.00;;
52956;SDS011;38819;42.692;23.342;2022-09-21T13:55:32;1.23;;;1.08;;
52956;SDS011;38819;42.692;23.342;2022-09-21T13:58:02;4.00;;;1.15;;
52956;SDS011;38819;42.692;23.342;2022-09-21T14:00:34;1.38;;;1.27;;
52956;SDS011;38819;42.692;23.342;2022-09-21T14:03:05;3.25;;;2.08;;
52956;SDS011;38819;42.692;23.342;2022-09-21T14:05:45;2.08;;;1.15;;
52956;SDS011;38819;42.692;23.342;2022-09-21T14:10:38;1.60;;;1.33;;
52956;SDS011;38819;42.692;23.342;2022-09-21T14:18:51;3.33;;;1.60;;
52956;SDS011;38819;42.692;23.342;2022-09-21T14:21:17;2.28;;;1.92;;
52956;SDS011;38819;42.692;23.342;2022-09-21T14:26:32;9.15;;;1.70;;
52956;SDS011;38819;42.692;23.342;2022-09-21T14:29:07;2.20;;;1.42;;
52956;SDS011;38819;42.692;23.342;2022-09-21T14:31:39;1.40;;;1.30;;
52956;SDS011;38819;42.692;23.342;2022-09-21T14:34:10;2.63;;;1.10;;
52956;SDS011;38819;42.692;23.342;2022-09-21T14:36:43;1.02;;;1.02;;
52956;SDS011;38819;42.692;23.342;2022-09-21T14:39:24;1.60;;;1.27;;
52956;SDS011;38819;42.692;23.342;2022-09-21T14:41:56;1.65;;;1.20;;
52956;SDS011;38819;42.692;23.342;2022-09-21T14:44:28;1.17;;;1.15;;
52956;SDS011;38819;42.692;23.342;2022-09-21T14:47:56;3.33;;;1.40;;
52956;SDS011;38819;42.692;23.342;2022-09-21T14:58:19;1.63;;;1.50;;
52956;SDS011;38819;42.692;23.342;2022-09-21T15:01:21;2.08;;;1.65;;
52956;SDS011;38819;42.692;23.342;2022-09-21T15:04:29;3.03;;;1.45;;
52956;SDS011;38819;42.692;23.342;2022-09-21T15:13:13;3.33;;;2.08;;
52956;SDS011;38819;42.692;23.342;2022-09-21T15:18:32;3.22;;;2.17;;
52956;SDS011;38819;42.692;23.342;2022-09-21T15:21:16;3.40;;;1.48;;
52956;SDS011;38819;42.692;23.342;2022-09-21T15:23:50;1.73;;;1.55;;
52956;SDS011;38819;42.692;23.342;2022-09-21T15:26:31;1.58;;;1.48;;
52956;SDS011;38819;42.692;23.342;2022-09-21T15:28:59;2.53;;;1.50;;
52956;SDS011;38819;42.692;23.342;2022-09-21T15:31:31;1.70;;;1.50;;
52956;SDS011;38819;42.692;23.342;2022-09-21T15:33:58;3.70;;;1.83;;
52956;SDS011;38819;42.692;23.342;2022-09-21T15:36:26;2.88;;;1.70;;
52956;SDS011;38819;42.692;23.342;2022-09-21T15:38:53;2.65;;;2.15;;
52956;SDS011;38819;42.692;23.342;2022-09-21T15:46:47;3.35;;;0.98;;
52956;SDS011;38819;42.692;23.342;2022-09-21T15:49:21;2.47;;;1.40;;
52956;SDS011;38819;42.692;23.342;2022-09-21T15:52:10;2.08;;;1.00;;
52956;SDS011;38819;42.692;23.342;2022-09-21T15:54:44;2.15;;;1.10;;
52956;SDS011;38819;42.692;23.342;2022-09-21T15:57:35;2.70;;;1.30;;
52956;SDS011;38819;42.692;23.342;2022-09-21T16:00:49;1.40;;;1.30;;
52956;SDS011;38819;42.692;23.342;2022-09-21T16:05:43;2.00;;;1.30;;
52956;SDS011;38819;42.692;23.342;2022-09-21T16:10:46;1.98;;;1.88;;
52956;SDS011;38819;42.692;23.342;2022-09-21T16:13:22;3.03;;;2.00;;
52956;SDS011;38819;42.692;23.342;2022-09-21T16:18:52;2.58;;;1.55;;
52956;SDS011;38819;42.692;23.342;2022-09-21T16:21:26;1.73;;;1.52;;
52956;SDS011;38819;42.692;23.342;2022-09-21T16:23:56;4.22;;;2.00;;
52956;SDS011;38819;42.692;23.342;2022-09-21T16:26:36;1.80;;;1.70;;
52956;SDS011;38819;42.692;23.342;2022-09-21T16:29:19;3.20;;;2.30;;
52956;SDS011;38819;42.692;23.342;2022-09-21T16:31:48;4.78;;;1.83;;
52956;SDS011;38819;42.692;23.342;2022-09-21T16:39:26;1.40;;;1.30;;
52956;SDS011;38819;42.692;23.342;2022-09-21T16:41:53;1.98;;;1.35;;
52956;SDS011;38819;42.692;23.342;2022-09-21T16:44:24;2.17;;;1.42;;
52956;SDS011;38819;42.692;23.342;2022-09-21T16:46:55;2.25;;;1.63;;
52956;SDS011;38819;42.692;23.342;2022-09-21T16:49:23;2.33;;;2.05;;
52956;SDS011;38819;42.692;23.342;2022-09-21T16:51:51;4.18;;;2.00;;
52956;SDS011;38819;42.692;23.342;2022-09-21T16:54:18;5.50;;;2.60;;
52956;SDS011;38819;42.692;23.342;2022-09-21T16:56:51;4.95;;;2.17;;
52956;SDS011;38819;42.692;23.342;2022-09-21T16:59:18;6.35;;;3.15;;
52956;SDS011;38819;42.692;23.342;2022-09-21T17:01:46;7.40;;;2.83;;
52956;SDS011;38819;42.692;23.342;2022-09-21T17:04:17;7.38;;;3.10;;
52956;SDS011;38819;42.692;23.342;2022-09-21T17:06:43;6.43;;;3.20;;
52956;SDS011;38819;42.692;23.342;2022-09-21T17:09:16;4.20;;;3.45;;
52956;SDS011;38819;42.692;23.342;2022-09-21T17:11:43;4.72;;;2.85;;
52956;SDS011;38819;42.692;23.342;2022-09-21T17:14:10;3.42;;;2.50;;
52956;SDS011;38819;42.692;23.342;2022-09-21T17:16:40;3.08;;;2.42;;
52956;SDS011;38819;42.692;23.342;2022-09-21T17:19:16;2.67;;;2.20;;
52956;SDS011;38819;42.692;23.342;2022-09-21T17:21:43;3.63;;;3.08;;
52956;SDS011;38819;42.692;23.342;2022-09-21T17:24:09;6.30;;;4.10;;
52956;SDS011;38819;42.692;23.342;2022-09-21T17:26:35;4.68;;;4.25;;
52956;SDS011;38819;42.692;23.342;2022-09-21T17:29:01;7.95;;;4.85;;
52956;SDS011;38819;42.692;23.342;2022-09-21T17:31:28;7.95;;;5.03;;
52956;SDS011;38819;42.692;23.342;2022-09-21T17:33:53;9.63;;;5.45;;
52956;SDS011;38819;42.692;23.342;2022-09-21T17:36:19;9.05;;;4.85;;
52956;SDS011;38819;42.692;23.342;2022-09-21T17:38:44;6.22;;;4.50;;
52956;SDS011;38819;42.692;23.342;2022-09-21T17:41:13;8.73;;;5.50;;
52956;SDS011;38819;42.692;23.342;2022-09-21T17:43:53;7.82;;;4.70;;
52956;SDS011;38819;42.692;23.342;2022-09-21T17:49:15;6.40;;;4.50;;
52956;SDS011;38819;42.692;23.342;2022-09-21T17:51:41;5.82;;;5.03;;
52956;SDS011;38819;42.692;23.342;2022-09-21T17:54:25;7.53;;;4.85;;
52956;SDS011;38819;42.692;23.342;2022-09-21T17:57:07;6.93;;;4.30;;
52956;SDS011;38819;42.692;23.342;2022-09-21T17:59:35;5.63;;;5.03;;
52956;SDS011;38819;42.692;23.342;2022-09-21T18:02:03;5.35;;;4.70;;
52956;SDS011;38819;42.692;23.342;2022-09-21T18:04:45;4.88;;;4.38;;
52956;SDS011;38819;42.692;23.342;2022-09-21T18:07:12;5.05;;;4.28;;
52956;SDS011;38819;42.692;23.342;2022-09-21T18:09:40;6.15;;;4.82;;
52956;SDS011;38819;42.692;23.342;2022-09-21T18:18:06;5.25;;;4.80;;
52956;SDS011;38819;42.692;23.342;2022-09-21T18:20:56;6.78;;;5.25;;
52956;SDS011;38819;42.692;23.342;2022-09-21T18:25:57;5.55;;;5.05;;
52956;SDS011;38819;42.692;23.342;2022-09-21T18:31:11;7.93;;;5.38;;
52956;SDS011;38819;42.692;23.342;2022-09-21T18:34:14;7.32;;;5.80;;
52956;SDS011;38819;42.692;23.342;2022-09-21T18:41:58;12.43;;;5.85;;
52956;SDS011;38819;42.692;23.342;2022-09-21T18:44:48;9.10;;;5.63;;
52956;SDS011;38819;42.692;23.342;2022-09-21T18:47:20;7.95;;;5.90;;
52956;SDS011;38819;42.692;23.342;2022-09-21T18:52:46;7.75;;;5.45;;
52956;SDS011;38819;42.692;23.342;2022-09-21T18:55:26;5.95;;;5.35;;
52956;SDS011;38819;42.692;23.342;2022-09-21T18:57:53;5.80;;;5.20;;